KVVV

Details ICAO KVVV
Name ORTONVILLE MUNI MARTINSON FLD
Region United States
Timezone America/Chicago (UTC-5.0)
Plans Departing 0
Arriving 1
Stats Elevation 1,100 ft / 335 m (AMSL)
Location 45.303683° -96.424738°
Runways 2
Magnetic Variation 2.692° E
Sunrise 2018-05-21 10:50:50 UTC / 2018-05-21 05:50:50 Local
Sunset 2018-05-22 01:56:38 UTC / 2018-05-21 20:56:38 Local
Advertisement - Login to hide

Runways

ID Width Length Bearing (true) Bearing (mag) Surface Threshold Offset Overrun Length
04 300 ft / 91 m 2,150 ft / 655 m 46.86° 44.17° Grass 0 ft / 0 m 0 ft / 0 m
16 75 ft / 23 m 3,420 ft / 1,042 m 168.58° 165.89° Asphalt 0 ft / 0 m 0 ft / 0 m
22 300 ft / 91 m 2,150 ft / 655 m 226.86° 224.17° Grass 0 ft / 0 m 0 ft / 0 m
34 75 ft / 23 m 3,420 ft / 1,042 m 348.58° 345.89° Asphalt 0 ft / 0 m 0 ft / 0 m

Map

Weather


0- 5 10 15 20 25 30 35+ Temperature / ° C

Clouds and Precipitation
Forecast for 2018-05-21 18:00 UTC. Updated 6 hours ago

Ground ~20,000 ft ~40,000 ft Winds

METAR

KVVV 212255Z AUTO 12008KT 10SM OVC018 16/13 A2998 RMK AO2

TAF

Not found

Frequencies

Unicom 122.80 MHz UNICOM
Warning: Do not use this data for real-world aviation or navigation. No guarantee of current accuracy is given.